Fort Saint John, Canada
Current Conditions -  °F | °C
As of 1:00 PM on Wednesday 26 Nov 2014 (Local Time) from CYXJ Reporting Station
Broken Clouds Broken Clouds  
Wind Chill: -2°   Ceiling: 3500
Heat Index:   Visibility: 15mi
Dew Point:   Wind: 5mph
Humidity: 85%   Direction: 280°W
Pressure: 30.17"   Gusts: NA
Location:  56.25°N, 120.85°W
Report Text: CYXJ 262000Z 28004KT 230V290 15SM BKN035 BKN076 M14/M16 A3017 RMK SC6AC1 SLP276
Loading
Personal Weather Stations






























Interactive Weather Map New forecast layout! Learn more

10-Day Weather Forecast

Advertisements
Track Severe Weather on mobile